sensor_id;sensor_type;location;lat;lon;timestamp;P1;durP1;ratioP1;P2;durP2;ratioP2
16153;SDS011;8182;55.648;13.208;2022-07-18T00:01:20;4.73;;;2.10;;
16153;SDS011;8182;55.648;13.208;2022-07-18T00:03:48;6.63;;;2.07;;
16153;SDS011;8182;55.648;13.208;2022-07-18T00:06:15;5.13;;;2.40;;
16153;SDS011;8182;55.648;13.208;2022-07-18T00:08:47;7.13;;;2.00;;
16153;SDS011;8182;55.648;13.208;2022-07-18T00:11:15;6.73;;;2.43;;
16153;SDS011;8182;55.648;13.208;2022-07-18T00:13:43;4.57;;;2.03;;
16153;SDS011;8182;55.648;13.208;2022-07-18T00:16:10;8.83;;;2.17;;
16153;SDS011;8182;55.648;13.208;2022-07-18T00:18:37;5.10;;;2.40;;
16153;SDS011;8182;55.648;13.208;2022-07-18T00:21:04;6.60;;;2.20;;
16153;SDS011;8182;55.648;13.208;2022-07-18T00:23:31;7.93;;;1.97;;
16153;SDS011;8182;55.648;13.208;2022-07-18T00:25:58;3.67;;;2.13;;
16153;SDS011;8182;55.648;13.208;2022-07-18T00:28:25;4.03;;;2.13;;
16153;SDS011;8182;55.648;13.208;2022-07-18T00:30:54;4.77;;;1.93;;
16153;SDS011;8182;55.648;13.208;2022-07-18T00:33:21;4.97;;;2.30;;
16153;SDS011;8182;55.648;13.208;2022-07-18T00:35:49;6.13;;;1.97;;
16153;SDS011;8182;55.648;13.208;2022-07-18T00:38:15;3.37;;;2.10;;
16153;SDS011;8182;55.648;13.208;2022-07-18T00:40:48;6.40;;;2.10;;
16153;SDS011;8182;55.648;13.208;2022-07-18T00:43:16;5.20;;;2.27;;
16153;SDS011;8182;55.648;13.208;2022-07-18T00:45:43;5.63;;;2.00;;
16153;SDS011;8182;55.648;13.208;2022-07-18T00:48:26;6.57;;;2.13;;
16153;SDS011;8182;55.648;13.208;2022-07-18T00:50:53;7.73;;;2.10;;
16153;SDS011;8182;55.648;13.208;2022-07-18T00:53:21;7.77;;;2.23;;
16153;SDS011;8182;55.648;13.208;2022-07-18T00:55:49;4.83;;;1.90;;
16153;SDS011;8182;55.648;13.208;2022-07-18T00:58:18;8.83;;;2.00;;
16153;SDS011;8182;55.648;13.208;2022-07-18T01:00:46;6.27;;;1.90;;
16153;SDS011;8182;55.648;13.208;2022-07-18T01:03:32;5.10;;;2.20;;
16153;SDS011;8182;55.648;13.208;2022-07-18T01:05:59;7.13;;;2.60;;
16153;SDS011;8182;55.648;13.208;2022-07-18T01:08:27;5.67;;;2.03;;
16153;SDS011;8182;55.648;13.208;2022-07-18T01:10:54;5.37;;;2.13;;
16153;SDS011;8182;55.648;13.208;2022-07-18T01:13:22;6.97;;;2.13;;
16153;SDS011;8182;55.648;13.208;2022-07-18T01:15:49;5.83;;;2.33;;
16153;SDS011;8182;55.648;13.208;2022-07-18T01:18:17;6.53;;;2.37;;
16153;SDS011;8182;55.648;13.208;2022-07-18T01:20:45;4.93;;;1.90;;
16153;SDS011;8182;55.648;13.208;2022-07-18T01:23:12;5.90;;;2.20;;
16153;SDS011;8182;55.648;13.208;2022-07-18T01:25:39;5.80;;;2.10;;
16153;SDS011;8182;55.648;13.208;2022-07-18T01:28:06;5.93;;;2.30;;
16153;SDS011;8182;55.648;13.208;2022-07-18T01:30:33;6.07;;;2.20;;
16153;SDS011;8182;55.648;13.208;2022-07-18T01:33:01;5.40;;;2.43;;
16153;SDS011;8182;55.648;13.208;2022-07-18T01:35:29;5.70;;;2.30;;
16153;SDS011;8182;55.648;13.208;2022-07-18T01:38:04;8.33;;;2.70;;
16153;SDS011;8182;55.648;13.208;2022-07-18T01:40:31;7.77;;;2.20;;
16153;SDS011;8182;55.648;13.208;2022-07-18T01:42:58;7.03;;;2.47;;
16153;SDS011;8182;55.648;13.208;2022-07-18T01:45:25;8.83;;;2.50;;
16153;SDS011;8182;55.648;13.208;2022-07-18T01:47:52;4.20;;;2.20;;
16153;SDS011;8182;55.648;13.208;2022-07-18T01:50:19;5.20;;;2.27;;
16153;SDS011;8182;55.648;13.208;2022-07-18T01:52:47;5.00;;;1.90;;
16153;SDS011;8182;55.648;13.208;2022-07-18T01:55:18;3.23;;;2.40;;
16153;SDS011;8182;55.648;13.208;2022-07-18T01:57:45;5.73;;;2.07;;
16153;SDS011;8182;55.648;13.208;2022-07-18T02:00:12;9.40;;;2.57;;
16153;SDS011;8182;55.648;13.208;2022-07-18T02:02:39;9.43;;;2.70;;
16153;SDS011;8182;55.648;13.208;2022-07-18T02:05:07;6.60;;;2.30;;
16153;SDS011;8182;55.648;13.208;2022-07-18T02:07:35;9.50;;;2.50;;
16153;SDS011;8182;55.648;13.208;2022-07-18T02:10:04;6.90;;;2.80;;
16153;SDS011;8182;55.648;13.208;2022-07-18T02:12:35;8.93;;;2.90;;
16153;SDS011;8182;55.648;13.208;2022-07-18T02:15:02;6.97;;;2.43;;
16153;SDS011;8182;55.648;13.208;2022-07-18T02:17:30;2.67;;;2.10;;
16153;SDS011;8182;55.648;13.208;2022-07-18T02:19:58;7.20;;;2.53;;
16153;SDS011;8182;55.648;13.208;2022-07-18T02:22:25;5.73;;;2.67;;
16153;SDS011;8182;55.648;13.208;2022-07-18T02:24:53;7.17;;;2.60;;
16153;SDS011;8182;55.648;13.208;2022-07-18T02:27:20;4.50;;;2.37;;
16153;SDS011;8182;55.648;13.208;2022-07-18T02:29:49;7.40;;;2.70;;
16153;SDS011;8182;55.648;13.208;2022-07-18T02:32:17;8.93;;;2.57;;
16153;SDS011;8182;55.648;13.208;2022-07-18T02:34:45;6.57;;;2.47;;
16153;SDS011;8182;55.648;13.208;2022-07-18T02:37:12;5.03;;;2.90;;
16153;SDS011;8182;55.648;13.208;2022-07-18T02:42:11;5.37;;;2.73;;
16153;SDS011;8182;55.648;13.208;2022-07-18T02:44:37;9.30;;;3.07;;
16153;SDS011;8182;55.648;13.208;2022-07-18T02:47:07;6.37;;;2.73;;
16153;SDS011;8182;55.648;13.208;2022-07-18T02:49:34;5.13;;;2.33;;
16153;SDS011;8182;55.648;13.208;2022-07-18T02:52:04;6.63;;;2.80;;
16153;SDS011;8182;55.648;13.208;2022-07-18T02:54:34;7.80;;;2.97;;
16153;SDS011;8182;55.648;13.208;2022-07-18T02:57:03;7.50;;;2.80;;
16153;SDS011;8182;55.648;13.208;2022-07-18T02:59:31;9.00;;;2.80;;
16153;SDS011;8182;55.648;13.208;2022-07-18T03:01:58;6.13;;;2.87;;
16153;SDS011;8182;55.648;13.208;2022-07-18T03:04:26;8.13;;;2.70;;
16153;SDS011;8182;55.648;13.208;2022-07-18T03:06:53;7.00;;;2.97;;
16153;SDS011;8182;55.648;13.208;2022-07-18T03:09:23;6.93;;;2.83;;
16153;SDS011;8182;55.648;13.208;2022-07-18T03:11:52;5.70;;;2.70;;
16153;SDS011;8182;55.648;13.208;2022-07-18T03:14:20;10.70;;;3.20;;
16153;SDS011;8182;55.648;13.208;2022-07-18T03:16:56;9.70;;;3.27;;
16153;SDS011;8182;55.648;13.208;2022-07-18T03:19:24;7.47;;;3.20;;
16153;SDS011;8182;55.648;13.208;2022-07-18T03:21:53;5.00;;;2.60;;
16153;SDS011;8182;55.648;13.208;2022-07-18T03:24:20;9.83;;;3.00;;
16153;SDS011;8182;55.648;13.208;2022-07-18T03:26:47;8.93;;;3.23;;
16153;SDS011;8182;55.648;13.208;2022-07-18T03:29:14;6.80;;;3.33;;
16153;SDS011;8182;55.648;13.208;2022-07-18T03:31:41;7.17;;;3.07;;
16153;SDS011;8182;55.648;13.208;2022-07-18T03:34:11;7.20;;;3.10;;
16153;SDS011;8182;55.648;13.208;2022-07-18T03:36:39;8.10;;;3.03;;
16153;SDS011;8182;55.648;13.208;2022-07-18T03:39:12;8.60;;;3.10;;
16153;SDS011;8182;55.648;13.208;2022-07-18T03:41:40;8.13;;;3.10;;
16153;SDS011;8182;55.648;13.208;2022-07-18T03:44:07;8.43;;;3.10;;
16153;SDS011;8182;55.648;13.208;2022-07-18T03:46:34;6.07;;;2.90;;
16153;SDS011;8182;55.648;13.208;2022-07-18T03:49:02;6.37;;;3.00;;
16153;SDS011;8182;55.648;13.208;2022-07-18T03:51:30;8.57;;;2.97;;
16153;SDS011;8182;55.648;13.208;2022-07-18T03:53:58;7.90;;;3.13;;
16153;SDS011;8182;55.648;13.208;2022-07-18T03:56:27;7.10;;;3.17;;
16153;SDS011;8182;55.648;13.208;2022-07-18T03:58:53;8.07;;;3.50;;
16153;SDS011;8182;55.648;13.208;2022-07-18T04:01:21;8.70;;;3.50;;
16153;SDS011;8182;55.648;13.208;2022-07-18T04:03:48;8.40;;;3.60;;
16153;SDS011;8182;55.648;13.208;2022-07-18T04:06:15;8.80;;;3.67;;
16153;SDS011;8182;55.648;13.208;2022-07-18T04:08:43;8.37;;;3.57;;
16153;SDS011;8182;55.648;13.208;2022-07-18T04:11:10;8.07;;;3.90;;
16153;SDS011;8182;55.648;13.208;2022-07-18T04:13:39;10.53;;;3.47;;
16153;SDS011;8182;55.648;13.208;2022-07-18T04:16:06;11.37;;;3.97;;
16153;SDS011;8182;55.648;13.208;2022-07-18T04:18:33;9.53;;;3.90;;
16153;SDS011;8182;55.648;13.208;2022-07-18T04:21:00;8.17;;;3.57;;
16153;SDS011;8182;55.648;13.208;2022-07-18T04:23:27;9.80;;;3.73;;
16153;SDS011;8182;55.648;13.208;2022-07-18T04:25:54;9.37;;;3.80;;
16153;SDS011;8182;55.648;13.208;2022-07-18T04:28:21;7.30;;;3.60;;
16153;SDS011;8182;55.648;13.208;2022-07-18T04:30:50;7.87;;;3.87;;
16153;SDS011;8182;55.648;13.208;2022-07-18T04:33:17;8.93;;;3.80;;
16153;SDS011;8182;55.648;13.208;2022-07-18T04:35:47;6.03;;;3.73;;
16153;SDS011;8182;55.648;13.208;2022-07-18T04:38:15;10.70;;;3.80;;
16153;SDS011;8182;55.648;13.208;2022-07-18T04:40:42;9.43;;;3.60;;
16153;SDS011;8182;55.648;13.208;2022-07-18T04:43:09;9.77;;;3.87;;
16153;SDS011;8182;55.648;13.208;2022-07-18T04:45:36;10.87;;;3.80;;
16153;SDS011;8182;55.648;13.208;2022-07-18T04:48:05;6.70;;;3.30;;
16153;SDS011;8182;55.648;13.208;2022-07-18T04:50:33;9.63;;;3.63;;
16153;SDS011;8182;55.648;13.208;2022-07-18T04:53:00;8.03;;;3.77;;
16153;SDS011;8182;55.648;13.208;2022-07-18T04:55:28;9.00;;;3.30;;
16153;SDS011;8182;55.648;13.208;2022-07-18T04:57:56;8.80;;;3.60;;
16153;SDS011;8182;55.648;13.208;2022-07-18T05:00:23;7.27;;;3.47;;
16153;SDS011;8182;55.648;13.208;2022-07-18T05:02:53;7.87;;;3.00;;
16153;SDS011;8182;55.648;13.208;2022-07-18T05:05:23;9.50;;;3.50;;
16153;SDS011;8182;55.648;13.208;2022-07-18T05:07:52;7.40;;;3.20;;
16153;SDS011;8182;55.648;13.208;2022-07-18T05:10:20;7.47;;;3.00;;
16153;SDS011;8182;55.648;13.208;2022-07-18T05:12:49;8.53;;;3.20;;
16153;SDS011;8182;55.648;13.208;2022-07-18T05:15:17;7.93;;;3.67;;
16153;SDS011;8182;55.648;13.208;2022-07-18T05:17:48;7.57;;;3.43;;
16153;SDS011;8182;55.648;13.208;2022-07-18T05:20:16;6.83;;;3.30;;
16153;SDS011;8182;55.648;13.208;2022-07-18T05:22:46;8.17;;;3.50;;
16153;SDS011;8182;55.648;13.208;2022-07-18T05:25:13;6.53;;;2.80;;
16153;SDS011;8182;55.648;13.208;2022-07-18T05:27:41;6.93;;;3.20;;
16153;SDS011;8182;55.648;13.208;2022-07-18T05:30:10;5.60;;;3.10;;
16153;SDS011;8182;55.648;13.208;2022-07-18T05:32:39;12.87;;;3.60;;
16153;SDS011;8182;55.648;13.208;2022-07-18T05:35:07;11.27;;;3.40;;
16153;SDS011;8182;55.648;13.208;2022-07-18T05:37:36;7.73;;;3.60;;
16153;SDS011;8182;55.648;13.208;2022-07-18T05:40:07;9.00;;;3.57;;
16153;SDS011;8182;55.648;13.208;2022-07-18T05:42:36;8.23;;;3.60;;
16153;SDS011;8182;55.648;13.208;2022-07-18T05:45:03;5.07;;;3.00;;
16153;SDS011;8182;55.648;13.208;2022-07-18T05:47:34;7.43;;;3.20;;
16153;SDS011;8182;55.648;13.208;2022-07-18T05:50:02;7.13;;;3.10;;
16153;SDS011;8182;55.648;13.208;2022-07-18T05:52:29;7.20;;;3.10;;
16153;SDS011;8182;55.648;13.208;2022-07-18T05:54:59;6.13;;;3.40;;
16153;SDS011;8182;55.648;13.208;2022-07-18T05:57:28;7.67;;;3.30;;
16153;SDS011;8182;55.648;13.208;2022-07-18T05:59:55;7.37;;;3.70;;
16153;SDS011;8182;55.648;13.208;2022-07-18T06:02:22;9.70;;;4.10;;
16153;SDS011;8182;55.648;13.208;2022-07-18T06:04:49;9.17;;;4.00;;
16153;SDS011;8182;55.648;13.208;2022-07-18T06:07:16;7.03;;;3.70;;
16153;SDS011;8182;55.648;13.208;2022-07-18T06:09:44;8.33;;;3.87;;
16153;SDS011;8182;55.648;13.208;2022-07-18T06:12:11;6.53;;;3.17;;
16153;SDS011;8182;55.648;13.208;2022-07-18T06:14:40;8.37;;;3.90;;
16153;SDS011;8182;55.648;13.208;2022-07-18T06:17:07;5.27;;;3.63;;
16153;SDS011;8182;55.648;13.208;2022-07-18T06:19:34;5.83;;;3.70;;
16153;SDS011;8182;55.648;13.208;2022-07-18T06:22:01;6.70;;;3.90;;
16153;SDS011;8182;55.648;13.208;2022-07-18T06:24:29;6.07;;;3.80;;
16153;SDS011;8182;55.648;13.208;2022-07-18T06:26:57;6.97;;;3.77;;
16153;SDS011;8182;55.648;13.208;2022-07-18T06:29:24;6.83;;;3.87;;
16153;SDS011;8182;55.648;13.208;2022-07-18T06:31:52;7.93;;;3.80;;
16153;SDS011;8182;55.648;13.208;2022-07-18T06:34:19;6.03;;;3.87;;
16153;SDS011;8182;55.648;13.208;2022-07-18T06:36:47;10.13;;;4.53;;
16153;SDS011;8182;55.648;13.208;2022-07-18T06:39:14;7.60;;;4.07;;
16153;SDS011;8182;55.648;13.208;2022-07-18T06:41:43;8.87;;;4.40;;
16153;SDS011;8182;55.648;13.208;2022-07-18T06:44:11;7.60;;;4.10;;
16153;SDS011;8182;55.648;13.208;2022-07-18T06:46:38;9.33;;;4.23;;
16153;SDS011;8182;55.648;13.208;2022-07-18T06:49:06;7.07;;;4.10;;
16153;SDS011;8182;55.648;13.208;2022-07-18T06:51:34;10.90;;;4.83;;
16153;SDS011;8182;55.648;13.208;2022-07-18T06:54:01;9.33;;;5.37;;
16153;SDS011;8182;55.648;13.208;2022-07-18T06:56:28;10.20;;;5.63;;
16153;SDS011;8182;55.648;13.208;2022-07-18T06:58:55;7.50;;;4.73;;
16153;SDS011;8182;55.648;13.208;2022-07-18T07:01:22;8.70;;;4.33;;
16153;SDS011;8182;55.648;13.208;2022-07-18T07:03:49;9.07;;;4.53;;
16153;SDS011;8182;55.648;13.208;2022-07-18T07:06:18;8.90;;;3.90;;
16153;SDS011;8182;55.648;13.208;2022-07-18T07:08:45;9.10;;;4.37;;
16153;SDS011;8182;55.648;13.208;2022-07-18T07:11:12;9.13;;;4.20;;
16153;SDS011;8182;55.648;13.208;2022-07-18T07:13:42;7.80;;;4.20;;
16153;SDS011;8182;55.648;13.208;2022-07-18T07:16:09;9.03;;;4.43;;
16153;SDS011;8182;55.648;13.208;2022-07-18T07:18:45;9.37;;;4.47;;
16153;SDS011;8182;55.648;13.208;2022-07-18T07:21:12;6.00;;;3.80;;
16153;SDS011;8182;55.648;13.208;2022-07-18T07:23:44;9.17;;;4.43;;
16153;SDS011;8182;55.648;13.208;2022-07-18T07:26:11;8.03;;;4.33;;
16153;SDS011;8182;55.648;13.208;2022-07-18T07:28:39;5.87;;;3.97;;
16153;SDS011;8182;55.648;13.208;2022-07-18T07:31:06;9.03;;;4.13;;
16153;SDS011;8182;55.648;13.208;2022-07-18T07:33:34;11.03;;;4.37;;
16153;SDS011;8182;55.648;13.208;2022-07-18T07:36:02;10.20;;;4.33;;
16153;SDS011;8182;55.648;13.208;2022-07-18T07:38:30;6.47;;;3.90;;
16153;SDS011;8182;55.648;13.208;2022-07-18T07:40:59;10.23;;;4.47;;
16153;SDS011;8182;55.648;13.208;2022-07-18T07:43:27;6.23;;;4.30;;
16153;SDS011;8182;55.648;13.208;2022-07-18T07:45:54;7.83;;;4.87;;
16153;SDS011;8182;55.648;13.208;2022-07-18T07:48:22;12.77;;;4.77;;
16153;SDS011;8182;55.648;13.208;2022-07-18T07:50:49;10.83;;;4.70;;
16153;SDS011;8182;55.648;13.208;2022-07-18T07:53:17;8.90;;;4.50;;
16153;SDS011;8182;55.648;13.208;2022-07-18T07:55:44;7.67;;;4.43;;
16153;SDS011;8182;55.648;13.208;2022-07-18T07:58:12;10.57;;;4.93;;
16153;SDS011;8182;55.648;13.208;2022-07-18T08:00:39;10.10;;;4.60;;
16153;SDS011;8182;55.648;13.208;2022-07-18T08:03:07;7.33;;;3.90;;
16153;SDS011;8182;55.648;13.208;2022-07-18T08:05:36;8.03;;;3.80;;
16153;SDS011;8182;55.648;13.208;2022-07-18T08:08:09;6.87;;;3.77;;
16153;SDS011;8182;55.648;13.208;2022-07-18T08:10:36;8.20;;;3.70;;
16153;SDS011;8182;55.648;13.208;2022-07-18T08:13:06;8.43;;;3.80;;
16153;SDS011;8182;55.648;13.208;2022-07-18T08:15:36;10.13;;;4.30;;
16153;SDS011;8182;55.648;13.208;2022-07-18T08:18:03;8.17;;;4.00;;
16153;SDS011;8182;55.648;13.208;2022-07-18T08:20:31;8.43;;;3.73;;
16153;SDS011;8182;55.648;13.208;2022-07-18T08:23:01;7.83;;;3.23;;
16153;SDS011;8182;55.648;13.208;2022-07-18T08:25:29;7.13;;;3.83;;
16153;SDS011;8182;55.648;13.208;2022-07-18T08:27:59;9.53;;;4.00;;
16153;SDS011;8182;55.648;13.208;2022-07-18T08:30:27;10.07;;;4.20;;
16153;SDS011;8182;55.648;13.208;2022-07-18T08:32:58;9.87;;;4.10;;
16153;SDS011;8182;55.648;13.208;2022-07-18T08:35:26;9.90;;;3.87;;
16153;SDS011;8182;55.648;13.208;2022-07-18T08:37:54;6.13;;;3.93;;
16153;SDS011;8182;55.648;13.208;2022-07-18T08:40:22;9.30;;;3.67;;
16153;SDS011;8182;55.648;13.208;2022-07-18T08:42:49;6.43;;;3.47;;
16153;SDS011;8182;55.648;13.208;2022-07-18T08:45:19;7.77;;;4.10;;
16153;SDS011;8182;55.648;13.208;2022-07-18T08:47:50;10.00;;;3.73;;
16153;SDS011;8182;55.648;13.208;2022-07-18T08:50:19;10.03;;;3.90;;
16153;SDS011;8182;55.648;13.208;2022-07-18T08:52:48;7.43;;;4.00;;
16153;SDS011;8182;55.648;13.208;2022-07-18T08:55:15;6.87;;;3.63;;
16153;SDS011;8182;55.648;13.208;2022-07-18T08:57:43;7.50;;;3.60;;
16153;SDS011;8182;55.648;13.208;2022-07-18T09:00:10;9.53;;;4.07;;
16153;SDS011;8182;55.648;13.208;2022-07-18T09:02:38;6.27;;;3.90;;
16153;SDS011;8182;55.648;13.208;2022-07-18T09:05:06;8.03;;;3.93;;
16153;SDS011;8182;55.648;13.208;2022-07-18T09:07:46;7.07;;;3.63;;
16153;SDS011;8182;55.648;13.208;2022-07-18T09:10:14;11.13;;;3.70;;
16153;SDS011;8182;55.648;13.208;2022-07-18T09:12:55;8.40;;;3.60;;
16153;SDS011;8182;55.648;13.208;2022-07-18T09:15:23;6.63;;;3.50;;
16153;SDS011;8182;55.648;13.208;2022-07-18T09:17:50;6.83;;;3.70;;
16153;SDS011;8182;55.648;13.208;2022-07-18T09:20:18;8.63;;;3.50;;
16153;SDS011;8182;55.648;13.208;2022-07-18T09:22:47;9.10;;;3.13;;
16153;SDS011;8182;55.648;13.208;2022-07-18T09:25:15;8.93;;;3.30;;
16153;SDS011;8182;55.648;13.208;2022-07-18T09:27:45;5.93;;;2.90;;
16153;SDS011;8182;55.648;13.208;2022-07-18T09:30:24;9.13;;;3.50;;
16153;SDS011;8182;55.648;13.208;2022-07-18T09:32:55;10.07;;;3.43;;
16153;SDS011;8182;55.648;13.208;2022-07-18T09:35:33;7.87;;;3.40;;
16153;SDS011;8182;55.648;13.208;2022-07-18T09:38:04;8.00;;;3.40;;
16153;SDS011;8182;55.648;13.208;2022-07-18T09:40:33;5.97;;;3.40;;
16153;SDS011;8182;55.648;13.208;2022-07-18T09:43:08;7.97;;;3.77;;
16153;SDS011;8182;55.648;13.208;2022-07-18T09:45:38;5.03;;;3.90;;
16153;SDS011;8182;55.648;13.208;2022-07-18T09:48:07;7.63;;;3.80;;
16153;SDS011;8182;55.648;13.208;2022-07-18T09:50:35;9.87;;;3.60;;
16153;SDS011;8182;55.648;13.208;2022-07-18T09:53:11;6.33;;;3.60;;
16153;SDS011;8182;55.648;13.208;2022-07-18T09:55:44;7.97;;;3.70;;
16153;SDS011;8182;55.648;13.208;2022-07-18T09:58:15;6.33;;;3.80;;
16153;SDS011;8182;55.648;13.208;2022-07-18T10:00:43;5.67;;;3.57;;
16153;SDS011;8182;55.648;13.208;2022-07-18T10:03:11;5.67;;;3.60;;
16153;SDS011;8182;55.648;13.208;2022-07-18T10:05:39;6.53;;;3.63;;
16153;SDS011;8182;55.648;13.208;2022-07-18T10:08:11;8.10;;;3.23;;
16153;SDS011;8182;55.648;13.208;2022-07-18T10:10:40;5.13;;;3.67;;
16153;SDS011;8182;55.648;13.208;2022-07-18T10:13:09;6.97;;;4.37;;
16153;SDS011;8182;55.648;13.208;2022-07-18T10:15:37;9.60;;;4.50;;
16153;SDS011;8182;55.648;13.208;2022-07-18T10:18:07;9.83;;;4.70;;
16153;SDS011;8182;55.648;13.208;2022-07-18T10:20:41;8.37;;;5.23;;
16153;SDS011;8182;55.648;13.208;2022-07-18T10:23:15;7.77;;;5.20;;
16153;SDS011;8182;55.648;13.208;2022-07-18T10:25:52;8.40;;;6.47;;
16153;SDS011;8182;55.648;13.208;2022-07-18T10:28:36;10.83;;;5.40;;
16153;SDS011;8182;55.648;13.208;2022-07-18T10:31:36;7.53;;;6.60;;
16153;SDS011;8182;55.648;13.208;2022-07-18T10:34:10;10.73;;;7.40;;
16153;SDS011;8182;55.648;13.208;2022-07-18T10:36:38;10.20;;;6.37;;
16153;SDS011;8182;55.648;13.208;2022-07-18T10:39:08;9.27;;;6.73;;
16153;SDS011;8182;55.648;13.208;2022-07-18T10:44:43;8.10;;;5.50;;
16153;SDS011;8182;55.648;13.208;2022-07-18T10:47:11;6.47;;;5.00;;
16153;SDS011;8182;55.648;13.208;2022-07-18T10:55:30;7.30;;;4.70;;
16153;SDS011;8182;55.648;13.208;2022-07-18T10:58:20;5.97;;;4.23;;
16153;SDS011;8182;55.648;13.208;2022-07-18T11:00:49;7.07;;;4.53;;
16153;SDS011;8182;55.648;13.208;2022-07-18T11:03:24;5.77;;;4.30;;
16153;SDS011;8182;55.648;13.208;2022-07-18T11:05:54;5.77;;;4.50;;
16153;SDS011;8182;55.648;13.208;2022-07-18T11:08:22;6.73;;;4.23;;
16153;SDS011;8182;55.648;13.208;2022-07-18T11:11:17;5.43;;;4.00;;
16153;SDS011;8182;55.648;13.208;2022-07-18T11:13:46;4.97;;;3.43;;
16153;SDS011;8182;55.648;13.208;2022-07-18T11:16:15;7.13;;;3.60;;
16153;SDS011;8182;55.648;13.208;2022-07-18T11:21:44;5.33;;;3.20;;
16153;SDS011;8182;55.648;13.208;2022-07-18T11:24:24;3.60;;;2.70;;
16153;SDS011;8182;55.648;13.208;2022-07-18T11:26:57;4.00;;;2.87;;
16153;SDS011;8182;55.648;13.208;2022-07-18T11:29:24;5.63;;;3.10;;
16153;SDS011;8182;55.648;13.208;2022-07-18T11:31:51;3.60;;;2.90;;
16153;SDS011;8182;55.648;13.208;2022-07-18T11:34:20;5.53;;;3.13;;
16153;SDS011;8182;55.648;13.208;2022-07-18T11:36:48;6.40;;;3.10;;
16153;SDS011;8182;55.648;13.208;2022-07-18T11:39:16;3.87;;;2.90;;
16153;SDS011;8182;55.648;13.208;2022-07-18T11:41:54;4.73;;;2.90;;
16153;SDS011;8182;55.648;13.208;2022-07-18T11:44:23;4.57;;;2.90;;
16153;SDS011;8182;55.648;13.208;2022-07-18T11:47:06;4.67;;;2.77;;
16153;SDS011;8182;55.648;13.208;2022-07-18T11:49:34;7.03;;;2.90;;
16153;SDS011;8182;55.648;13.208;2022-07-18T11:52:03;5.40;;;3.27;;
16153;SDS011;8182;55.648;13.208;2022-07-18T11:54:31;3.70;;;2.70;;
16153;SDS011;8182;55.648;13.208;2022-07-18T11:57:00;6.37;;;2.70;;
16153;SDS011;8182;55.648;13.208;2022-07-18T11:59:37;4.93;;;2.93;;
16153;SDS011;8182;55.648;13.208;2022-07-18T12:02:06;5.40;;;2.63;;
16153;SDS011;8182;55.648;13.208;2022-07-18T12:04:33;5.00;;;2.83;;
16153;SDS011;8182;55.648;13.208;2022-07-18T12:07:17;3.80;;;2.60;;
16153;SDS011;8182;55.648;13.208;2022-07-18T12:09:45;7.30;;;2.60;;
16153;SDS011;8182;55.648;13.208;2022-07-18T12:12:15;6.07;;;2.70;;
16153;SDS011;8182;55.648;13.208;2022-07-18T12:14:52;5.83;;;2.20;;
16153;SDS011;8182;55.648;13.208;2022-07-18T12:17:20;4.17;;;2.40;;
16153;SDS011;8182;55.648;13.208;2022-07-18T12:19:47;11.57;;;3.17;;
16153;SDS011;8182;55.648;13.208;2022-07-18T12:22:14;8.40;;;2.70;;
16153;SDS011;8182;55.648;13.208;2022-07-18T12:24:51;6.73;;;2.47;;
16153;SDS011;8182;55.648;13.208;2022-07-18T12:27:23;5.23;;;2.53;;
16153;SDS011;8182;55.648;13.208;2022-07-18T12:30:01;4.83;;;2.60;;
16153;SDS011;8182;55.648;13.208;2022-07-18T12:32:40;4.07;;;2.50;;
16153;SDS011;8182;55.648;13.208;2022-07-18T12:35:13;6.87;;;2.40;;
16153;SDS011;8182;55.648;13.208;2022-07-18T12:37:50;4.23;;;2.20;;
16153;SDS011;8182;55.648;13.208;2022-07-18T12:40:21;4.10;;;2.43;;
16153;SDS011;8182;55.648;13.208;2022-07-18T12:42:51;4.27;;;2.57;;
16153;SDS011;8182;55.648;13.208;2022-07-18T12:45:33;5.63;;;2.50;;
16153;SDS011;8182;55.648;13.208;2022-07-18T12:48:03;3.33;;;2.10;;
16153;SDS011;8182;55.648;13.208;2022-07-18T12:50:32;4.17;;;2.37;;
16153;SDS011;8182;55.648;13.208;2022-07-18T12:53:00;3.23;;;2.30;;
16153;SDS011;8182;55.648;13.208;2022-07-18T12:55:27;5.07;;;2.17;;
16153;SDS011;8182;55.648;13.208;2022-07-18T12:57:55;6.97;;;2.10;;
16153;SDS011;8182;55.648;13.208;2022-07-18T13:00:22;5.97;;;2.00;;
16153;SDS011;8182;55.648;13.208;2022-07-18T13:02:49;3.37;;;2.07;;
16153;SDS011;8182;55.648;13.208;2022-07-18T13:05:16;3.70;;;2.30;;
16153;SDS011;8182;55.648;13.208;2022-07-18T13:07:43;4.27;;;2.23;;
16153;SDS011;8182;55.648;13.208;2022-07-18T13:10:10;3.67;;;1.93;;
16153;SDS011;8182;55.648;13.208;2022-07-18T13:12:38;4.63;;;2.40;;
16153;SDS011;8182;55.648;13.208;2022-07-18T13:15:06;4.50;;;2.40;;
16153;SDS011;8182;55.648;13.208;2022-07-18T13:17:34;8.10;;;2.30;;
16153;SDS011;8182;55.648;13.208;2022-07-18T13:20:02;6.13;;;2.37;;
16153;SDS011;8182;55.648;13.208;2022-07-18T13:22:30;3.47;;;2.13;;
16153;SDS011;8182;55.648;13.208;2022-07-18T13:25:03;4.30;;;2.50;;
16153;SDS011;8182;55.648;13.208;2022-07-18T13:27:31;6.03;;;2.10;;
16153;SDS011;8182;55.648;13.208;2022-07-18T13:29:58;5.43;;;2.67;;
16153;SDS011;8182;55.648;13.208;2022-07-18T13:32:27;4.03;;;2.67;;
16153;SDS011;8182;55.648;13.208;2022-07-18T13:34:55;4.77;;;2.70;;
16153;SDS011;8182;55.648;13.208;2022-07-18T13:37:22;4.43;;;2.80;;
16153;SDS011;8182;55.648;13.208;2022-07-18T13:39:49;3.63;;;2.70;;
16153;SDS011;8182;55.648;13.208;2022-07-18T13:42:16;4.97;;;3.17;;
16153;SDS011;8182;55.648;13.208;2022-07-18T13:44:43;4.83;;;3.60;;
16153;SDS011;8182;55.648;13.208;2022-07-18T13:47:11;11.70;;;10.37;;
16153;SDS011;8182;55.648;13.208;2022-07-18T13:49:39;7.77;;;4.27;;
16153;SDS011;8182;55.648;13.208;2022-07-18T13:52:06;13.37;;;9.20;;
16153;SDS011;8182;55.648;13.208;2022-07-18T13:54:34;8.80;;;7.10;;
16153;SDS011;8182;55.648;13.208;2022-07-18T13:57:01;5.20;;;3.60;;
16153;SDS011;8182;55.648;13.208;2022-07-18T13:59:29;6.40;;;3.77;;
16153;SDS011;8182;55.648;13.208;2022-07-18T14:01:56;8.07;;;3.80;;
16153;SDS011;8182;55.648;13.208;2022-07-18T14:04:23;5.33;;;3.43;;
16153;SDS011;8182;55.648;13.208;2022-07-18T14:06:51;5.07;;;3.83;;
16153;SDS011;8182;55.648;13.208;2022-07-18T14:09:18;4.87;;;3.80;;
16153;SDS011;8182;55.648;13.208;2022-07-18T14:11:46;4.90;;;3.93;;
16153;SDS011;8182;55.648;13.208;2022-07-18T14:14:13;8.63;;;3.70;;
16153;SDS011;8182;55.648;13.208;2022-07-18T14:16:40;8.77;;;6.53;;
16153;SDS011;8182;55.648;13.208;2022-07-18T14:19:07;7.40;;;5.40;;
16153;SDS011;8182;55.648;13.208;2022-07-18T14:21:34;4.63;;;3.73;;
16153;SDS011;8182;55.648;13.208;2022-07-18T14:24:02;14.70;;;9.50;;
16153;SDS011;8182;55.648;13.208;2022-07-18T14:26:30;8.37;;;6.30;;
16153;SDS011;8182;55.648;13.208;2022-07-18T14:28:57;8.40;;;4.30;;
16153;SDS011;8182;55.648;13.208;2022-07-18T14:31:23;6.10;;;4.10;;
16153;SDS011;8182;55.648;13.208;2022-07-18T14:33:50;7.97;;;4.20;;
16153;SDS011;8182;55.648;13.208;2022-07-18T14:36:17;6.13;;;3.67;;
16153;SDS011;8182;55.648;13.208;2022-07-18T14:38:45;5.10;;;3.80;;
16153;SDS011;8182;55.648;13.208;2022-07-18T14:41:14;7.50;;;4.07;;
16153;SDS011;8182;55.648;13.208;2022-07-18T14:43:41;4.60;;;3.70;;
16153;SDS011;8182;55.648;13.208;2022-07-18T14:46:08;5.67;;;3.83;;
16153;SDS011;8182;55.648;13.208;2022-07-18T14:48:35;8.43;;;3.87;;
16153;SDS011;8182;55.648;13.208;2022-07-18T14:51:02;5.63;;;4.47;;
16153;SDS011;8182;55.648;13.208;2022-07-18T14:53:31;5.27;;;4.13;;
16153;SDS011;8182;55.648;13.208;2022-07-18T14:55:58;5.27;;;4.00;;
16153;SDS011;8182;55.648;13.208;2022-07-18T14:58:26;9.60;;;4.20;;
16153;SDS011;8182;55.648;13.208;2022-07-18T15:00:53;7.20;;;4.63;;
16153;SDS011;8182;55.648;13.208;2022-07-18T15:03:20;13.67;;;6.00;;
16153;SDS011;8182;55.648;13.208;2022-07-18T15:05:47;10.33;;;6.00;;
16153;SDS011;8182;55.648;13.208;2022-07-18T15:08:14;13.17;;;6.60;;
16153;SDS011;8182;55.648;13.208;2022-07-18T15:10:41;10.90;;;6.93;;